Time;durP1;ratioP1;P1;durP2;ratioP2;P2;SDS_P1;SDS_P2;PMS_P1;PMS_P2;Temp;Humidity;BMP_temperature;BMP_pressure;BME280_temperature;BME280_humidity;BME280_pressure;Samples;Min_cycle;Max_cycle;Signal;HPM_P1;HPM_P2
2022/02/08 00:00:02;;;;;;;1921.73;539.13;;;5.30;99.90;;;;;;5080824;28;20485;-80
2022/02/08 00:02:35;;;;;;;1999.90;999.90;;;5.30;99.90;;;;;;5065481;28;20515;-80
2022/02/08 00:05:04;;;;;;;1999.90;999.90;;;5.30;99.90;;;;;;5064319;28;20544;-80
2022/02/08 00:07:33;;;;;;;1904.57;553.97;;;5.30;99.90;;;;;;5063738;28;20485;-80
2022/02/08 00:10:04;;;;;;;1937.60;580.90;;;5.30;99.90;;;;;;5063427;28;21085;-80
2022/02/08 00:12:34;;;;;;;1985.07;561.97;;;5.30;99.90;;;;;;5080566;28;20992;-80
2022/02/08 00:15:02;;;;;;;1962.37;540.97;;;5.40;99.90;;;;;;5066037;28;20434;-80
2022/02/08 00:17:30;;;;;;;1999.90;999.90;;;5.40;99.90;;;;;;5065271;28;20480;-80
2022/02/08 00:19:59;;;;;;;1999.90;564.67;;;5.40;99.90;;;;;;5065070;28;20878;-80
2022/02/08 00:22:30;;;;;;;1902.57;442.23;;;5.40;99.90;;;;;;5080829;28;20442;-80
2022/02/08 00:24:58;;;;;;;1894.37;592.57;;;5.40;99.90;;;;;;5080999;28;20457;-80
2022/02/08 00:27:26;;;;;;;1796.63;430.17;;;5.40;99.90;;;;;;5080710;28;20513;-80
2022/02/08 00:29:59;;;;;;;1871.43;355.77;;;5.40;99.90;;;;;;5079869;28;20862;-80
2022/02/08 00:32:27;;;;;;;1330.13;298.47;;;5.40;99.90;;;;;;5082404;28;20552;-80
2022/02/08 00:34:55;;;;;;;1980.20;456.87;;;5.40;99.90;;;;;;5064385;28;20524;-80
2022/02/08 00:37:24;;;;;;;1615.53;398.83;;;5.50;99.90;;;;;;5080413;28;20465;-80
2022/02/08 00:39:52;;;;;;;1863.77;455.23;;;5.50;99.90;;;;;;5080511;28;20541;-80
2022/02/08 00:42:23;;;;;;;1931.57;640.53;;;5.50;99.90;;;;;;5080592;28;20444;-80
2022/02/08 00:44:58;;;;;;;942.40;239.50;;;5.50;99.90;;;;;;5064010;28;20443;-80
2022/02/08 00:47:32;;;;;;;1883.40;443.37;;;5.50;99.90;;;;;;5079464;28;20444;-80
2022/02/08 00:50:06;;;;;;;1832.37;408.53;;;5.50;99.90;;;;;;5063414;28;20469;-80
2022/02/08 00:52:51;;;;;;;1934.87;496.77;;;5.50;99.90;;;;;;5065212;28;20497;-80
2022/02/08 00:55:19;;;;;;;1880.70;439.40;;;5.50;99.90;;;;;;5080322;28;20445;-80
2022/02/08 00:57:47;;;;;;;1464.10;309.47;;;5.50;99.90;;;;;;5063060;28;20975;-80
2022/02/08 01:00:16;;;;;;;1416.43;263.07;;;5.60;99.90;;;;;;5079648;28;20478;-80
2022/02/08 01:02:53;;;;;;;1136.40;238.00;;;5.60;99.90;;;;;;5080446;28;20452;-80
2022/02/08 01:05:22;;;;;;;1833.63;447.13;;;5.60;99.90;;;;;;5079714;28;21002;-80
2022/02/08 01:07:52;;;;;;;796.50;200.03;;;5.60;99.90;;;;;;5063916;28;20978;-80
2022/02/08 01:10:23;;;;;;;939.87;249.13;;;5.60;99.90;;;;;;5062481;28;20466;-80
2022/02/08 01:12:51;;;;;;;628.23;108.13;;;5.60;99.90;;;;;;5081885;28;20525;-80
2022/02/08 01:15:19;;;;;;;1748.93;415.83;;;5.60;99.90;;;;;;5080050;28;20454;-79
2022/02/08 01:17:55;;;;;;;734.30;142.33;;;5.70;99.90;;;;;;5063239;28;20454;-80
2022/02/08 01:20:32;;;;;;;777.27;168.63;;;5.70;99.90;;;;;;5063330;28;20462;-80
2022/02/08 01:23:04;;;;;;;827.87;143.90;;;5.70;99.90;;;;;;5063036;28;20850;-80
2022/02/08 01:25:37;;;;;;;1950.40;492.03;;;5.70;99.90;;;;;;5064398;28;20423;-80
2022/02/08 01:28:20;;;;;;;202.33;37.87;;;5.70;99.90;;;;;;5080261;28;20477;-80
2022/02/08 01:31:02;;;;;;;1584.37;309.93;;;5.70;99.90;;;;;;5080938;28;20439;-80
2022/02/08 01:34:06;;;;;;;1445.10;328.23;;;5.70;99.90;;;;;;5080591;28;20565;-80
2022/02/08 01:36:46;;;;;;;1674.43;365.27;;;5.70;99.90;;;;;;5082481;28;20450;-80
2022/02/08 01:39:24;;;;;;;1398.83;269.80;;;5.70;99.90;;;;;;5063087;28;20509;-80
2022/02/08 01:42:21;;;;;;;768.63;123.40;;;5.70;99.90;;;;;;5043430;28;20450;-80
2022/02/08 01:45:03;;;;;;;641.60;107.43;;;5.70;99.90;;;;;;5044352;28;20584;-80
2022/02/08 01:47:43;;;;;;;1330.00;244.13;;;5.70;99.90;;;;;;5045138;28;20795;-80
2022/02/08 01:50:14;;;;;;;1824.17;375.63;;;5.70;99.90;;;;;;5042856;28;20549;-80
2022/02/08 01:52:48;;;;;;;1292.10;264.57;;;5.70;99.90;;;;;;5043076;28;20474;-80
2022/02/08 01:55:26;;;;;;;687.83;118.77;;;5.70;99.90;;;;;;5075432;28;20485;-80
2022/02/08 01:58:15;;;;;;;896.47;179.87;;;5.70;99.90;;;;;;5079169;28;20875;-80
2022/02/08 02:00:44;;;;;;;1100.80;209.43;;;5.70;99.90;;;;;;5064808;28;20485;-80
2022/02/08 02:03:12;;;;;;;372.50;55.07;;;5.70;99.90;;;;;;5062918;28;20499;-80
2022/02/08 02:05:42;;;;;;;336.90;51.50;;;5.70;99.90;;;;;;5079728;28;20454;-80
2022/02/08 02:08:14;;;;;;;251.67;37.97;;;5.70;99.90;;;;;;5062540;28;20442;-80
2022/02/08 02:10:45;;;;;;;222.40;56.70;;;5.70;99.90;;;;;;5079834;28;20477;-80
2022/02/08 02:13:26;;;;;;;252.40;35.70;;;5.70;99.90;;;;;;5078961;28;20478;-80
2022/02/08 02:15:54;;;;;;;237.20;34.57;;;5.70;99.90;;;;;;5079092;28;20442;-80
2022/02/08 02:18:23;;;;;;;278.03;49.97;;;5.70;99.90;;;;;;5062567;28;20856;-80
2022/02/08 02:20:51;;;;;;;141.13;33.03;;;5.70;99.90;;;;;;5078593;28;20470;-80
2022/02/08 02:23:21;;;;;;;275.57;41.43;;;5.70;99.90;;;;;;5078849;28;20454;-80
2022/02/08 02:25:51;;;;;;;171.27;31.10;;;5.70;99.90;;;;;;5062317;28;20538;-80
2022/02/08 02:28:19;;;;;;;227.17;31.00;;;5.80;99.90;;;;;;5078796;28;20517;-80
2022/02/08 02:30:50;;;;;;;166.27;25.90;;;5.80;99.90;;;;;;5079752;28;20451;-80
2022/02/08 02:33:19;;;;;;;307.07;44.00;;;5.80;99.90;;;;;;5078694;28;20470;-80
2022/02/08 02:35:48;;;;;;;244.27;43.47;;;5.80;99.90;;;;;;5078334;28;20450;-80
2022/02/08 02:38:19;;;;;;;258.50;37.60;;;5.80;99.90;;;;;;5062357;28;20442;-80
2022/02/08 02:40:47;;;;;;;197.50;41.43;;;5.80;99.90;;;;;;5061858;28;20450;-80
2022/02/08 02:43:22;;;;;;;202.00;31.30;;;5.80;99.90;;;;;;5077811;28;20951;-80
2022/02/08 02:45:54;;;;;;;151.03;33.43;;;5.90;99.90;;;;;;5061840;28;20488;-80
2022/02/08 02:48:25;;;;;;;220.50;36.87;;;5.90;99.90;;;;;;5062134;28;20439;-80
2022/02/08 02:50:56;;;;;;;182.50;39.50;;;5.90;99.90;;;;;;5061145;28;20450;-80
2022/02/08 02:53:37;;;;;;;244.93;56.13;;;5.90;99.90;;;;;;5078254;28;20833;-80
2022/02/08 02:56:11;;;;;;;244.73;38.17;;;5.90;99.90;;;;;;5061271;28;20448;-80
2022/02/08 03:02:59;;;;;;;172.77;39.77;;;5.90;99.90;;;;;;4892378;29;20456;-80
2022/02/08 03:18:53;;;;;;;226.17;41.37;;;6.00;99.90;;;;;;4949284;29;20521;-80
2022/02/08 03:21:22;;;;;;;293.73;43.73;;;6.00;99.90;;;;;;4962005;28;20482;-80
2022/02/08 03:23:50;;;;;;;189.37;40.10;;;6.00;99.90;;;;;;4962079;28;20484;-81
2022/02/08 03:26:19;;;;;;;218.53;36.33;;;6.00;99.90;;;;;;4962260;28;20509;-80
2022/02/08 03:28:55;;;;;;;287.50;48.60;;;6.10;99.90;;;;;;4945363;29;20482;-80
2022/02/08 03:31:30;;;;;;;244.60;44.30;;;6.10;99.90;;;;;;4983467;28;20439;-80
2022/02/08 03:33:59;;;;;;;296.23;47.07;;;6.10;99.90;;;;;;5019997;28;20478;-80
2022/02/08 03:36:31;;;;;;;384.20;59.30;;;6.10;99.90;;;;;;5041690;28;20449;-80
2022/02/08 03:39:13;;;;;;;292.00;43.17;;;6.10;99.90;;;;;;5057836;28;20490;-80
2022/02/08 03:41:51;;;;;;;281.13;42.67;;;6.10;99.90;;;;;;5058259;28;20450;-80
2022/02/08 03:44:23;;;;;;;288.00;46.63;;;6.10;99.90;;;;;;5060062;28;20427;-80
2022/02/08 03:47:04;;;;;;;163.43;36.83;;;6.10;99.90;;;;;;5078211;28;20501;-80
2022/02/08 03:49:33;;;;;;;105.67;36.37;;;6.10;99.90;;;;;;5060758;28;20523;-80
2022/02/08 03:52:05;;;;;;;209.33;40.57;;;6.20;99.90;;;;;;5061480;28;20462;-80
2022/02/08 03:54:38;;;;;;;194.27;40.27;;;6.20;99.90;;;;;;5077922;28;20458;-80
2022/02/08 03:57:09;;;;;;;102.07;33.50;;;6.20;99.90;;;;;;5078371;28;20855;-80
2022/02/08 03:59:39;;;;;;;230.77;37.53;;;6.20;99.90;;;;;;5060945;28;20508;-80
2022/02/08 04:05:11;;;;;;;290.73;50.00;;;6.30;99.90;;;;;;5037688;28;20457;-81
2022/02/08 04:07:44;;;;;;;116.30;34.03;;;6.30;99.90;;;;;;5062493;28;20876;-81
2022/02/08 04:10:20;;;;;;;152.27;39.43;;;6.30;99.90;;;;;;5062238;28;20466;-80
2022/02/08 04:12:58;;;;;;;178.07;34.03;;;6.30;99.90;;;;;;5062193;28;20418;-80
2022/02/08 04:34:22;;;;;;;192.27;41.20;;;6.40;99.90;;;;;;5065847;28;20465;-81
2022/02/08 04:43:19;;;;;;;201.63;46.33;;;6.50;99.90;;;;;;5066262;28;20430;-81
2022/02/08 04:45:52;;;;;;;228.17;44.13;;;6.50;99.90;;;;;;5065322;28;20424;-80
2022/02/08 04:48:29;;;;;;;157.90;40.63;;;6.60;99.90;;;;;;5064733;28;20454;-80
2022/02/08 04:51:12;;;;;;;243.73;44.73;;;6.60;99.90;;;;;;5064637;28;20450;-81
2022/02/08 04:53:46;;;;;;;188.67;45.20;;;6.60;99.90;;;;;;5065241;28;20466;-81
2022/02/08 04:56:22;;;;;;;150.87;40.73;;;6.60;99.90;;;;;;5064418;28;20422;-81
2022/02/08 04:59:03;;;;;;;151.00;36.27;;;6.60;99.90;;;;;;5064186;28;20450;-81
2022/02/08 05:01:44;;;;;;;229.50;48.20;;;6.70;99.90;;;;;;5065232;28;20446;-81
2022/02/08 05:34:55;;;;;;;300.23;56.53;;;7.10;99.90;;;;;;5064247;28;20466;-80
2022/02/08 05:37:39;;;;;;;169.93;39.17;;;7.10;99.90;;;;;;5064477;28;20439;-81
2022/02/08 05:43:10;;;;;;;193.60;50.23;;;7.20;99.90;;;;;;5065186;28;20420;-81
2022/02/08 05:46:02;;;;;;;283.47;54.63;;;7.30;99.90;;;;;;5064767;28;20436;-81
2022/02/08 05:48:33;;;;;;;233.27;46.40;;;7.30;99.90;;;;;;5067378;28;20445;-80
2022/02/08 05:51:06;;;;;;;159.90;42.80;;;7.40;99.90;;;;;;5065526;28;20434;-81
2022/02/08 05:53:44;;;;;;;217.83;44.03;;;7.40;99.90;;;;;;5064857;28;20488;-81
2022/02/08 05:56:16;;;;;;;229.97;44.37;;;7.40;99.90;;;;;;5064688;28;20422;-81
2022/02/08 05:58:47;;;;;;;292.73;56.10;;;7.40;99.90;;;;;;5064541;28;21039;-80
2022/02/08 06:01:15;;;;;;;156.37;43.63;;;7.50;99.90;;;;;;5064895;28;20927;-80
2022/02/08 06:04:16;;;;;;;304.80;56.33;;;7.50;99.90;;;;;;5054906;28;20929;-81
2022/02/08 06:06:45;;;;;;;184.17;52.13;;;7.50;99.90;;;;;;5079037;28;20454;-81
2022/02/08 06:09:14;;;;;;;348.20;53.33;;;7.60;99.90;;;;;;5062818;28;20475;-81
2022/02/08 06:11:50;;;;;;;216.83;50.43;;;7.60;99.90;;;;;;5079573;28;20458;-81
2022/02/08 06:14:25;;;;;;;268.10;47.93;;;7.70;99.90;;;;;;5062450;28;21025;-81
2022/02/08 06:18:04;;;;;;;;;;;;;;;;;;;;;
2022/02/08 06:21:32;;;;;;;229.87;43.77;;;7.70;99.90;;;;;;5062314;28;20469;-81
2022/02/08 06:28:36;;;;;;;277.67;51.77;;;7.80;99.90;;;;;;4898879;29;20473;-81
2022/02/08 06:32:38;;;;;;;;;;;;;;;;;;;;;
2022/02/08 06:35:44;;;;;;;147.77;45.47;;;7.90;99.90;;;;;;4868739;29;20519;-81
2022/02/08 06:38:15;;;;;;;223.33;49.87;;;7.90;99.90;;;;;;4865407;29;20485;-81
2022/02/08 06:40:46;;;;;;;213.03;47.33;;;7.90;99.90;;;;;;4868309;29;20512;-81
2022/02/08 06:43:15;;;;;;;177.17;45.17;;;8.00;99.90;;;;;;4868009;29;20451;-81
2022/02/08 06:45:46;;;;;;;211.90;41.33;;;8.00;99.90;;;;;;4867034;29;20898;-81
2022/02/08 06:48:14;;;;;;;236.20;48.60;;;8.00;99.90;;;;;;4867748;29;20453;-81
2022/02/08 06:50:43;;;;;;;362.17;47.17;;;8.10;99.90;;;;;;4935007;29;20823;-81
2022/02/08 06:53:17;;;;;;;245.10;41.47;;;8.10;99.90;;;;;;4943684;29;21021;-81
2022/02/08 06:55:45;;;;;;;176.07;45.13;;;8.10;99.90;;;;;;4943145;29;20561;-81
2022/02/08 06:58:15;;;;;;;283.77;43.73;;;8.10;99.90;;;;;;4945830;28;20453;-81
2022/02/08 07:00:48;;;;;;;325.43;51.87;;;8.20;99.90;;;;;;5000788;28;20571;-81
2022/02/08 07:03:18;;;;;;;318.40;55.50;;;8.20;99.90;;;;;;5000533;28;20446;-81
2022/02/08 07:05:48;;;;;;;350.73;57.30;;;8.20;99.90;;;;;;5052258;28;20820;-81
2022/02/08 07:08:17;;;;;;;216.60;47.87;;;8.20;99.90;;;;;;5062359;28;20480;-81
2022/02/08 07:10:49;;;;;;;272.67;47.90;;;8.20;99.90;;;;;;5061380;28;20923;-81
2022/02/08 07:13:21;;;;;;;144.03;34.47;;;8.30;99.90;;;;;;5061740;28;20429;-81
2022/02/08 07:15:52;;;;;;;231.60;41.43;;;8.30;99.90;;;;;;5060398;28;20527;-81
2022/02/08 07:18:32;;;;;;;;;;;;;;;;;;;;;
2022/02/08 07:21:40;;;;;;;273.03;47.90;;;8.30;99.90;;;;;;5058064;28;20897;-81
2022/02/08 07:24:11;;;;;;;167.60;43.73;;;8.30;99.90;;;;;;5060393;28;20463;-81
2022/02/08 07:26:41;;;;;;;236.93;43.33;;;8.40;99.90;;;;;;5061142;28;20485;-81
2022/02/08 07:29:15;;;;;;;237.23;46.57;;;8.40;99.90;;;;;;5060607;28;20492;-81
2022/02/08 07:39:25;;;;;;;221.87;32.77;;;8.50;99.90;;;;;;4966583;28;20556;-81
2022/02/08 07:41:56;;;;;;;325.83;51.17;;;8.50;99.90;;;;;;4981193;28;20557;-81
2022/02/08 07:44:24;;;;;;;430.13;55.97;;;8.50;99.90;;;;;;4964640;28;20995;-81
2022/02/08 07:47:07;;;;;;;195.47;35.73;;;8.60;99.90;;;;;;4965313;28;20541;-81
2022/02/08 07:49:39;;;;;;;430.90;64.03;;;8.60;99.90;;;;;;5076778;28;20476;-81
2022/02/08 07:52:08;;;;;;;408.90;63.37;;;8.60;99.90;;;;;;5076821;28;20488;-81
2022/02/08 07:54:36;;;;;;;267.10;34.73;;;8.60;99.90;;;;;;5059796;28;20460;-81
2022/02/08 07:57:04;;;;;;;397.57;51.60;;;8.60;99.90;;;;;;5063703;28;20614;-81
2022/02/08 07:59:33;;;;;;;285.80;44.80;;;8.70;99.90;;;;;;5064228;28;20466;-81
2022/02/08 08:02:01;;;;;;;319.93;58.40;;;8.70;99.90;;;;;;5081359;28;20939;-81
2022/02/08 08:04:33;;;;;;;425.40;53.00;;;8.70;99.90;;;;;;5080810;28;20936;-81
2022/02/08 08:07:10;;;;;;;420.17;50.90;;;8.80;99.90;;;;;;5064276;28;20446;-81
2022/02/08 08:09:41;;;;;;;337.63;53.87;;;8.80;99.90;;;;;;5063875;28;20487;-80
2022/02/08 08:12:13;;;;;;;216.83;40.97;;;8.90;99.90;;;;;;5063717;28;20442;-81
2022/02/08 08:14:41;;;;;;;471.00;68.17;;;8.90;99.90;;;;;;5063778;28;20469;-81
2022/02/08 08:18:01;;;;;;;387.17;52.40;;;8.90;99.90;;;;;;5057995;28;20454;-81
2022/02/08 08:24:57;;;;;;;412.37;58.90;;;9.00;99.90;;;;;;4876358;29;20546;-81
2022/02/08 08:43:36;;;;;;;152.23;24.00;;;9.20;99.90;;;;;;4920332;29;20844;-81
2022/02/08 08:49:22;;;;;;;349.70;44.93;;;9.20;99.90;;;;;;5049805;28;20560;-81
2022/02/08 08:51:53;;;;;;;409.00;56.83;;;9.20;99.90;;;;;;5079362;28;20778;-81
2022/02/08 08:54:26;;;;;;;288.53;34.20;;;9.20;99.90;;;;;;5062623;28;20455;-81
2022/02/08 08:56:54;;;;;;;429.73;65.07;;;9.30;99.90;;;;;;5079273;28;21017;-81
2022/02/08 08:59:24;;;;;;;384.17;50.53;;;9.20;99.90;;;;;;5064251;28;20461;-81
2022/02/08 09:01:55;;;;;;;290.10;63.27;;;9.30;99.90;;;;;;5079275;28;20442;-81
2022/02/08 09:04:32;;;;;;;449.83;63.33;;;9.30;99.90;;;;;;5063184;28;20477;-81
2022/02/08 09:07:02;;;;;;;222.27;31.50;;;9.30;99.90;;;;;;5063117;28;20798;-81
2022/02/08 09:31:11;;;;;;;469.13;58.77;;;9.50;99.90;;;;;;4841038;29;20436;-81
2022/02/08 09:33:40;;;;;;;482.23;69.77;;;9.50;99.90;;;;;;4995249;28;20571;-81
2022/02/08 09:36:24;;;;;;;473.63;75.93;;;9.50;99.90;;;;;;5021752;28;20472;-81
2022/02/08 09:38:53;;;;;;;586.23;68.67;;;9.60;99.90;;;;;;5005442;28;20483;-81
2022/02/08 09:41:23;;;;;;;352.87;77.57;;;9.60;99.90;;;;;;5037949;28;20453;-81
2022/02/08 09:43:57;;;;;;;470.57;73.17;;;9.50;99.90;;;;;;5078389;28;20446;-81
2022/02/08 09:46:31;;;;;;;537.03;55.17;;;9.50;99.90;;;;;;5079206;28;20456;-81
2022/02/08 09:49:04;;;;;;;483.83;63.23;;;9.50;99.90;;;;;;5061836;28;20461;-81
2022/02/08 09:51:47;;;;;;;;;;;;;;;;;;;;;
2022/02/08 10:05:50;;;;;;;285.07;38.30;;;9.60;99.90;;;;;;4931459;28;20443;-81
2022/02/08 10:21:48;;;;;;;348.30;41.40;;;9.60;99.90;;;;;;4909882;29;20452;-81
2022/02/08 10:24:21;;;;;;;268.43;38.80;;;9.70;99.90;;;;;;4978606;28;20533;-81
2022/02/08 10:27:02;;;;;;;473.23;72.63;;;9.70;99.90;;;;;;4984353;28;20468;-81
2022/02/08 10:29:40;;;;;;;408.37;62.17;;;9.70;99.90;;;;;;5000703;28;20476;-81
2022/02/08 10:37:35;;;;;;;581.27;89.40;;;9.70;99.90;;;;;;4984299;28;20453;-81
2022/02/08 10:38:06;;;;;;;419.43;64.60;;;9.70;99.90;;;;;;4984295;28;20853;-80
2022/02/08 10:40:38;;;;;;;326.10;47.57;;;9.60;99.90;;;;;;5057814;28;20466;-80
2022/02/08 10:43:09;;;;;;;398.23;55.17;;;9.70;99.90;;;;;;5078464;28;20445;-81
2022/02/08 10:45:41;;;;;;;427.47;67.40;;;9.70;99.90;;;;;;5078151;28;20442;-81
2022/02/08 10:48:11;;;;;;;371.40;60.10;;;9.60;99.90;;;;;;5061402;28;20438;-81
2022/02/08 10:50:50;;;;;;;478.53;71.67;;;9.60;99.90;;;;;;5061498;28;20488;-81
2022/02/08 10:53:20;;;;;;;397.37;53.13;;;9.60;99.90;;;;;;5060678;28;20889;-81
2022/02/08 10:55:57;;;;;;;457.60;77.47;;;9.70;99.90;;;;;;5061469;28;20440;-81
2022/02/08 10:58:31;;;;;;;383.70;50.47;;;9.60;99.90;;;;;;5059269;28;20520;-79
2022/02/08 11:01:06;;;;;;;381.00;55.87;;;9.60;99.90;;;;;;5076838;28;20454;-81
2022/02/08 11:03:41;;;;;;;404.97;59.60;;;9.60;99.90;;;;;;5060157;28;20442;-81
2022/02/08 11:06:27;;;;;;;381.40;70.67;;;9.70;99.90;;;;;;5061500;28;20432;-81
2022/02/08 11:11:57;;;;;;;477.03;65.53;;;9.60;99.90;;;;;;5058471;28;20472;-81
2022/02/08 11:14:34;;;;;;;344.60;51.53;;;9.60;99.90;;;;;;5061137;28;20433;-81
2022/02/08 11:20:19;;;;;;;353.37;57.87;;;9.70;99.90;;;;;;5061320;28;20466;-82
2022/02/08 11:23:22;;;;;;;326.70;54.77;;;9.70;99.90;;;;;;5061358;28;20453;-81
2022/02/08 11:25:52;;;;;;;511.03;75.37;;;9.70;99.90;;;;;;5076398;28;20434;-82
2022/02/08 11:28:35;;;;;;;497.33;70.07;;;9.70;99.90;;;;;;5060188;28;20434;-82
2022/02/08 11:31:14;;;;;;;409.43;84.00;;;9.70;99.90;;;;;;5058509;28;20450;-81
2022/02/08 11:39:36;;;;;;;561.33;77.47;;;9.80;99.90;;;;;;5059997;28;20513;-81
2022/02/08 11:48:47;;;;;;;549.67;72.67;;;9.80;99.90;;;;;;5077038;28;20887;-81
2022/02/08 11:54:20;;;;;;;432.97;59.60;;;9.90;99.90;;;;;;5060899;28;20438;-82
2022/02/08 11:57:26;;;;;;;372.73;65.90;;;9.90;99.90;;;;;;5059857;28;20473;-82
2022/02/08 12:00:12;;;;;;;390.27;69.83;;;9.90;99.90;;;;;;5060533;28;20998;-82
2022/02/08 12:02:50;;;;;;;362.27;61.50;;;9.90;99.90;;;;;;5061098;28;20904;-81
2022/02/08 12:05:30;;;;;;;423.63;78.13;;;9.90;99.90;;;;;;5060310;28;20445;-81
2022/02/08 12:08:11;;;;;;;432.57;89.00;;;10.00;99.90;;;;;;5061388;28;20450;-82
2022/02/08 12:11:15;;;;;;;418.47;99.47;;;10.00;99.90;;;;;;5077722;28;20488;-81
2022/02/08 12:31:56;;;;;;;501.97;116.30;;;10.10;99.90;;;;;;5057513;28;20454;-79
2022/02/08 12:34:45;;;;;;;471.50;97.07;;;10.10;99.90;;;;;;5058070;28;20502;-80
2022/02/08 12:49:23;;;;;;;320.50;82.37;;;10.20;99.90;;;;;;5060718;28;20453;-80
2022/02/08 12:54:56;;;;;;;312.00;71.47;;;10.20;99.90;;;;;;5077738;28;20477;-79
2022/02/08 12:57:45;;;;;;;385.90;85.83;;;10.20;99.90;;;;;;5062364;28;20458;-79
2022/02/08 13:00:40;;;;;;;365.43;61.80;;;10.20;99.90;;;;;;5060333;28;20900;-80
2022/02/08 14:02:01;;;;;;;75.23;25.17;;;10.40;99.90;;;;;;5076037;28;20470;-81
2022/02/08 14:07:34;;;;;;;210.67;49.33;;;10.40;99.90;;;;;;5058868;28;20465;-79
2022/02/08 14:10:17;;;;;;;197.73;57.70;;;10.40;99.90;;;;;;5058759;28;20465;-79
2022/02/08 14:13:20;;;;;;;92.63;37.50;;;10.40;99.90;;;;;;5059706;28;20489;-79
2022/02/08 14:16:05;;;;;;;575.27;119.77;;;10.40;99.90;;;;;;5058730;28;20442;-79
2022/02/08 14:19:03;;;;;;;64.73;22.87;;;10.40;99.90;;;;;;5057787;28;20545;-79
2022/02/08 14:21:39;;;;;;;382.47;77.47;;;10.40;99.90;;;;;;5074901;28;20440;-79
2022/02/08 14:24:17;;;;;;;191.40;41.10;;;10.40;99.90;;;;;;5074151;28;20533;-79
2022/02/08 14:29:50;;;;;;;297.57;65.43;;;10.40;99.90;;;;;;5057902;28;20466;-79
2022/02/08 15:05:50;;;;;;;341.67;52.17;;;10.30;99.90;;;;;;4979799;28;20495;-79
2022/02/08 15:08:25;;;;;;;363.43;58.30;;;10.30;99.90;;;;;;5030221;28;20443;-79
2022/02/08 15:10:56;;;;;;;361.50;49.60;;;10.30;99.90;;;;;;5058375;28;20430;-79
2022/02/08 15:13:26;;;;;;;419.00;52.83;;;10.30;99.90;;;;;;5073561;28;20521;-79
2022/02/08 15:16:25;;;;;;;406.83;64.73;;;10.30;99.90;;;;;;5058644;28;20533;-79
2022/02/08 15:18:55;;;;;;;349.30;49.73;;;10.30;99.90;;;;;;5057240;28;20489;-79
2022/02/08 15:21:27;;;;;;;325.63;59.90;;;10.30;99.90;;;;;;5057283;28;20954;-79
2022/02/08 15:23:56;;;;;;;299.97;62.57;;;10.30;99.90;;;;;;5058592;28;20888;-79
2022/02/08 15:26:26;;;;;;;314.03;58.30;;;10.30;99.90;;;;;;5073810;28;20450;-79
2022/02/08 15:28:55;;;;;;;370.80;55.30;;;10.30;99.90;;;;;;5057208;28;20470;-79
2022/02/08 15:31:23;;;;;;;337.23;46.50;;;10.20;99.90;;;;;;5058864;28;20844;-79
2022/02/08 15:33:56;;;;;;;320.87;44.40;;;10.20;99.90;;;;;;5057083;28;20460;-79
2022/02/08 15:36:25;;;;;;;397.80;55.77;;;10.20;99.90;;;;;;5057300;28;20453;-79
2022/02/08 15:38:57;;;;;;;325.37;56.77;;;10.20;99.90;;;;;;5058745;28;20473;-79
2022/02/08 15:41:26;;;;;;;487.07;65.53;;;10.20;99.90;;;;;;5074677;28;20438;-79
2022/02/08 15:43:54;;;;;;;324.30;57.20;;;10.20;99.90;;;;;;5074111;28;20454;-79
2022/02/08 15:46:25;;;;;;;384.93;67.13;;;10.20;99.90;;;;;;5057855;28;20452;-79
2022/02/08 15:48:55;;;;;;;360.40;72.03;;;10.10;99.90;;;;;;5056087;28;20462;-79
2022/02/08 15:51:29;;;;;;;342.03;62.50;;;10.10;99.90;;;;;;5057214;28;20879;-80
2022/02/08 15:54:13;;;;;;;317.30;51.80;;;10.10;99.90;;;;;;5056866;28;20819;-78
2022/02/08 15:57:06;;;;;;;280.03;42.03;;;10.10;99.90;;;;;;5056580;28;20473;-79
2022/02/08 16:05:34;;;;;;;362.00;49.83;;;10.10;99.90;;;;;;5056345;28;20939;-79
2022/02/08 16:08:24;;;;;;;404.40;62.13;;;10.10;99.90;;;;;;5072556;28;20442;-80
2022/02/08 16:11:04;;;;;;;447.23;52.17;;;10.10;99.90;;;;;;5056568;28;20552;-79
2022/02/08 16:13:43;;;;;;;448.70;70.47;;;10.00;99.90;;;;;;5057761;28;20453;-80
2022/02/08 16:16:35;;;;;;;367.23;56.13;;;10.00;99.90;;;;;;5052662;28;20446;-76
2022/02/08 16:19:13;;;;;;;323.97;55.63;;;10.00;99.90;;;;;;5059900;28;20568;-80
2022/02/08 16:24:35;;;;;;;371.47;54.93;;;10.00;99.90;;;;;;5079971;28;20477;-80
2022/02/08 16:27:28;;;;;;;384.83;58.87;;;10.00;99.90;;;;;;5084284;28;20449;-81
2022/02/08 16:33:29;;;;;;;335.40;48.63;;;10.00;99.90;;;;;;5118277;27;20517;-82
2022/02/08 16:50:01;;;;;;;403.00;55.47;;;10.00;99.90;;;;;;5115007;28;20494;-82
2022/02/08 16:52:50;;;;;;;542.77;70.90;;;10.00;99.90;;;;;;5117372;28;20554;-82
2022/02/08 16:55:32;;;;;;;473.40;57.43;;;10.00;99.90;;;;;;5119265;28;20807;-81
2022/02/08 16:58:13;;;;;;;452.50;62.10;;;10.00;99.90;;;;;;5116707;28;20447;-82
2022/02/08 17:00:44;;;;;;;394.00;57.60;;;10.00;99.90;;;;;;5117122;28;20462;-82
2022/02/08 17:03:22;;;;;;;391.90;49.67;;;10.00;99.90;;;;;;5115079;28;20947;-79
2022/02/08 17:05:51;;;;;;;465.73;66.70;;;10.00;99.90;;;;;;5115809;28;20442;-79
2022/02/08 17:08:22;;;;;;;379.13;47.63;;;10.00;99.90;;;;;;5117221;28;20440;-79
2022/02/08 17:10:53;;;;;;;336.77;53.10;;;10.00;99.90;;;;;;5115920;28;20470;-80
2022/02/08 17:13:46;;;;;;;399.20;54.70;;;10.00;99.90;;;;;;5115940;28;20440;-79
2022/02/08 17:16:21;;;;;;;461.67;53.10;;;10.00;99.90;;;;;;5116904;28;20463;-82
2022/02/08 17:19:09;;;;;;;179.37;30.60;;;10.00;99.90;;;;;;5115248;28;20882;-79
2022/02/08 17:46:34;;;;;;;439.70;67.07;;;9.90;99.90;;;;;;5081725;28;20439;-82
2022/02/08 17:49:03;;;;;;;434.80;64.03;;;9.90;99.90;;;;;;5082015;28;20468;-82
2022/02/08 17:51:34;;;;;;;441.83;64.53;;;9.90;99.90;;;;;;5089871;28;20472;-82
2022/02/08 17:54:19;;;;;;;452.60;63.27;;;9.90;99.90;;;;;;5101464;28;20444;-82
2022/02/08 17:56:50;;;;;;;382.63;50.60;;;9.90;99.90;;;;;;5101674;28;20448;-82
2022/02/08 17:59:22;;;;;;;349.23;47.97;;;9.80;99.90;;;;;;5102289;28;21050;-80
2022/02/08 18:01:52;;;;;;;432.70;61.63;;;9.90;99.90;;;;;;5101186;28;20489;-82
2022/02/08 18:04:21;;;;;;;426.43;59.40;;;9.80;99.90;;;;;;5087845;28;20925;-82
2022/02/08 18:06:52;;;;;;;425.17;64.27;;;9.80;99.90;;;;;;5080789;28;20461;-82
2022/02/08 18:17:05;;;;;;;515.93;56.70;;;9.80;99.90;;;;;;4938412;28;20831;-79
2022/02/08 18:28:17;;;;;;;308.37;45.30;;;9.70;99.90;;;;;;4867605;29;20485;-79
2022/02/08 18:56:45;;;;;;;374.53;45.33;;;9.70;99.90;;;;;;5078127;28;20449;-82
2022/02/08 19:07:36;;;;;;;498.93;91.50;;;9.70;99.90;;;;;;5081075;28;20444;-82
2022/02/08 19:10:37;;;;;;;409.63;48.43;;;9.70;99.90;;;;;;5086549;28;20813;-82
2022/02/08 19:16:15;;;;;;;418.97;53.47;;;9.70;99.90;;;;;;5044027;28;20481;-82
2022/02/08 19:18:58;;;;;;;480.73;58.10;;;9.70;99.90;;;;;;5087262;28;20453;-79
2022/02/08 19:24:09;;;;;;;364.73;53.17;;;9.70;99.90;;;;;;5077502;28;20437;-82
2022/02/08 19:26:37;;;;;;;308.47;50.67;;;9.60;99.90;;;;;;5078753;28;20492;-82
2022/02/08 19:29:06;;;;;;;441.03;65.50;;;9.70;99.90;;;;;;5078841;28;20472;-82
2022/02/08 19:31:36;;;;;;;445.33;67.10;;;9.60;99.90;;;;;;5080079;28;20468;-82
2022/02/08 19:34:04;;;;;;;339.33;61.90;;;9.60;99.90;;;;;;5092378;28;20508;-79
2022/02/08 19:36:35;;;;;;;309.23;51.93;;;9.70;99.90;;;;;;5091909;28;20453;-79
2022/02/08 19:42:22;;;;;;;;;;;;;;;;;;;;;
2022/02/08 19:49:41;;;;;;;;;;;;;;;;;;;;;
2022/02/08 20:06:30;;;;;;;264.43;37.70;;;9.60;99.90;;;;;;4968351;28;20452;-82
2022/02/08 20:10:03;;;;;;;279.40;33.53;;;9.50;99.90;;;;;;4953900;29;20477;-80
2022/02/08 20:23:37;;;;;;;308.17;46.20;;;9.50;99.90;;;;;;4893497;29;20439;-79
2022/02/08 20:27:18;;;;;;;177.40;36.57;;;9.60;99.90;;;;;;4844262;29;20471;-82
2022/02/08 20:29:49;;;;;;;203.20;38.77;;;9.50;99.90;;;;;;4954161;28;20472;-79
2022/02/08 20:32:22;;;;;;;269.57;38.17;;;9.50;99.90;;;;;;4997046;28;20465;-82
2022/02/08 20:34:57;;;;;;;388.50;53.77;;;9.50;99.90;;;;;;4997975;28;20486;-82
2022/02/08 20:37:51;;;;;;;;;;;;;;;;;;;;;
2022/02/08 21:45:07;;;;;;;424.80;60.93;;;9.50;99.90;;;;;;4948445;28;20461;-81
2022/02/08 21:50:12;;;;;;;325.27;68.83;;;9.50;99.90;;;;;;5032806;28;20483;-81
2022/02/08 21:52:52;;;;;;;450.67;70.93;;;9.50;99.90;;;;;;5046828;28;20460;-81
2022/02/08 22:05:15;;;;;;;;;;;;;;;;;;;;;
2022/02/08 22:19:55;;;;;;;406.00;61.50;;;9.50;99.90;;;;;;4830686;29;20468;-81
2022/02/08 22:22:27;;;;;;;530.00;65.17;;;9.50;99.90;;;;;;4845544;29;20568;-82